Fort Bragg, NC (28307)

8:39 AM EST on February 06, 2016 (GMT -0500)
Cottonade | | Change Station
CLOSE
Current Station
Personal Weather Station
Location: Fayetteville, NC
Elevation: 276 ft
Nearby Weather Stations

Elev 276 ft 35.10 °N, 78.99 °W | Updated 52 seconds ago

Clear
Clear
33.4 °F
Feels Like 33 °F
N
1.7
Wind Variable Wind from ENE

Today
High -- | Low -- °F
--% Chance of Precip.
Yesterday
High -- | Low -- °F
Precip. -- in
Pressure 30.47 in
Visibility 10.0 miles
Clouds Clear
Windchill 33 °F
Dew Point 31 °F
Humidity 91%
Rainfall 0.00 in
Snow Depth Not available.
7:11 AM 5:49 PM
Waning Crescent, 5% visible
METAR KPOB 061258Z AUTO 00000KT 10SM CLR M02/M03 A3045 RMK AO2 SLP316 T10231033
Pressure 30.47 in
Visibility 10.0 miles
Clouds Clear
Windchill 33 °F
Dew Point 31 °F
Humidity 91%
Rainfall 0.00 in
Snow Depth Not available.
7:11 AM 5:49 PM
Waning Crescent, 5% visible
METAR KPOB 061258Z AUTO 00000KT 10SM CLR M02/M03 A3045 RMK AO2 SLP316 T10231033

10-Day Weather Forecast

Almanac

Astronomy

Feb. 06, 2016 Rise Set
Actual Time
Civil Twilight
Nautical Twilight
Astronomical Twilight
Moon
Length of Visible Light
Length of Day
Tomorrow will be .
, % of the Moon is Illuminated

Today's Extremes

State Highs State Lows

Community

WunderPhotos

Upload Photos

1,890,971 photos uploaded!

WunderBlog® & News

Nearby

Air Quality

  Air Quality AQ Index Pollutant
Not available.

Snow Depth

Station Depth Elevation

Earthquake Activity

City Distance Mag. Time & Date
Minimum magnitude displayed is 2.5.

Coastal Water Temperatures

Place Temperature

Stations

Nearby Weather Stations

Station Location Temp. Windchill Dew Point Humidity Wind Precip. Elev Updated Type
                   

Watches & Warnings

There are currently no watches in effect.